sensor_id;sensor_type;location;lat;lon;timestamp;P1;durP1;ratioP1;P2;durP2;ratioP2
79668;SDS011;69136;52.614;6.976;2023-04-10T00:02:41;69.43;;;40.38;;
79668;SDS011;69136;52.614;6.976;2023-04-10T00:05:27;65.07;;;36.08;;
79668;SDS011;69136;52.614;6.976;2023-04-10T00:08:12;74.90;;;41.30;;
79668;SDS011;69136;52.614;6.976;2023-04-10T00:13:40;78.57;;;43.42;;
79668;SDS011;69136;52.614;6.976;2023-04-10T00:16:24;75.38;;;40.88;;
79668;SDS011;69136;52.614;6.976;2023-04-10T00:19:08;72.18;;;39.92;;
79668;SDS011;69136;52.614;6.976;2023-04-10T00:21:52;77.30;;;44.13;;
79668;SDS011;69136;52.614;6.976;2023-04-10T00:24:36;67.38;;;43.72;;
79668;SDS011;69136;52.614;6.976;2023-04-10T00:27:20;78.38;;;43.30;;
79668;SDS011;69136;52.614;6.976;2023-04-10T00:30:05;75.57;;;44.25;;
79668;SDS011;69136;52.614;6.976;2023-04-10T00:32:50;76.70;;;45.30;;
79668;SDS011;69136;52.614;6.976;2023-04-10T00:35:35;80.35;;;43.25;;
79668;SDS011;69136;52.614;6.976;2023-04-10T00:38:19;79.10;;;44.13;;
79668;SDS011;69136;52.614;6.976;2023-04-10T00:41:05;76.70;;;44.58;;
79668;SDS011;69136;52.614;6.976;2023-04-10T00:43:53;76.22;;;42.65;;
79668;SDS011;69136;52.614;6.976;2023-04-10T00:46:38;78.80;;;44.22;;
79668;SDS011;69136;52.614;6.976;2023-04-10T00:49:23;77.20;;;42.90;;
79668;SDS011;69136;52.614;6.976;2023-04-10T00:52:07;79.45;;;44.17;;
79668;SDS011;69136;52.614;6.976;2023-04-10T00:54:52;77.50;;;41.85;;
79668;SDS011;69136;52.614;6.976;2023-04-10T00:57:36;72.90;;;44.35;;
79668;SDS011;69136;52.614;6.976;2023-04-10T01:00:21;75.35;;;43.53;;
79668;SDS011;69136;52.614;6.976;2023-04-10T01:03:06;72.60;;;42.05;;
79668;SDS011;69136;52.614;6.976;2023-04-10T01:06:02;75.05;;;44.42;;
79668;SDS011;69136;52.614;6.976;2023-04-10T01:08:53;77.20;;;43.53;;
79668;SDS011;69136;52.614;6.976;2023-04-10T01:14:48;76.90;;;45.60;;
79668;SDS011;69136;52.614;6.976;2023-04-10T01:17:42;79.07;;;45.78;;
79668;SDS011;69136;52.614;6.976;2023-04-10T01:20:32;78.35;;;44.00;;
79668;SDS011;69136;52.614;6.976;2023-04-10T01:26:11;75.28;;;42.17;;
79668;SDS011;69136;52.614;6.976;2023-04-10T01:29:00;79.97;;;44.85;;
79668;SDS011;69136;52.614;6.976;2023-04-10T01:32:01;77.72;;;43.75;;
79668;SDS011;69136;52.614;6.976;2023-04-10T01:34:50;77.88;;;42.92;;
79668;SDS011;69136;52.614;6.976;2023-04-10T01:37:37;75.10;;;43.20;;
79668;SDS011;69136;52.614;6.976;2023-04-10T01:40:23;79.32;;;44.38;;
79668;SDS011;69136;52.614;6.976;2023-04-10T01:43:10;76.25;;;43.13;;
79668;SDS011;69136;52.614;6.976;2023-04-10T01:46:04;80.15;;;45.03;;
79668;SDS011;69136;52.614;6.976;2023-04-10T01:48:49;78.07;;;45.88;;
79668;SDS011;69136;52.614;6.976;2023-04-10T01:51:34;72.70;;;41.55;;
79668;SDS011;69136;52.614;6.976;2023-04-10T01:54:20;74.75;;;43.10;;
79668;SDS011;69136;52.614;6.976;2023-04-10T01:57:05;81.75;;;45.70;;
79668;SDS011;69136;52.614;6.976;2023-04-10T02:00:08;72.03;;;43.65;;
79668;SDS011;69136;52.614;6.976;2023-04-10T02:02:58;79.53;;;44.90;;
79668;SDS011;69136;52.614;6.976;2023-04-10T02:08:41;80.50;;;47.22;;
79668;SDS011;69136;52.614;6.976;2023-04-10T02:14:31;79.57;;;45.20;;
79668;SDS011;69136;52.614;6.976;2023-04-10T02:17:19;73.80;;;44.28;;
79668;SDS011;69136;52.614;6.976;2023-04-10T02:20:07;76.45;;;44.40;;
79668;SDS011;69136;52.614;6.976;2023-04-10T02:22:58;79.07;;;44.60;;
79668;SDS011;69136;52.614;6.976;2023-04-10T02:25:45;75.38;;;42.08;;
79668;SDS011;69136;52.614;6.976;2023-04-10T02:28:30;72.53;;;40.85;;
79668;SDS011;69136;52.614;6.976;2023-04-10T02:31:14;73.50;;;44.10;;
79668;SDS011;69136;52.614;6.976;2023-04-10T02:33:59;79.43;;;45.17;;
79668;SDS011;69136;52.614;6.976;2023-04-10T02:36:43;79.07;;;44.83;;
79668;SDS011;69136;52.614;6.976;2023-04-10T02:39:29;72.15;;;42.72;;
79668;SDS011;69136;52.614;6.976;2023-04-10T02:42:14;80.38;;;46.22;;
79668;SDS011;69136;52.614;6.976;2023-04-10T02:44:58;73.80;;;42.22;;
79668;SDS011;69136;52.614;6.976;2023-04-10T02:47:45;78.13;;;43.85;;
79668;SDS011;69136;52.614;6.976;2023-04-10T02:50:29;78.32;;;44.67;;
79668;SDS011;69136;52.614;6.976;2023-04-10T02:53:15;76.93;;;42.17;;
79668;SDS011;69136;52.614;6.976;2023-04-10T02:56:00;81.28;;;45.08;;
79668;SDS011;69136;52.614;6.976;2023-04-10T02:58:45;72.97;;;42.05;;
79668;SDS011;69136;52.614;6.976;2023-04-10T03:01:31;73.35;;;42.83;;
79668;SDS011;69136;52.614;6.976;2023-04-10T03:04:16;80.47;;;43.70;;
79668;SDS011;69136;52.614;6.976;2023-04-10T03:07:01;80.10;;;45.08;;
79668;SDS011;69136;52.614;6.976;2023-04-10T03:09:46;80.55;;;44.90;;
79668;SDS011;69136;52.614;6.976;2023-04-10T03:12:30;78.38;;;44.47;;
79668;SDS011;69136;52.614;6.976;2023-04-10T03:17:59;75.30;;;41.40;;
79668;SDS011;69136;52.614;6.976;2023-04-10T03:20:43;72.78;;;42.28;;
79668;SDS011;69136;52.614;6.976;2023-04-10T03:23:28;71.85;;;41.92;;
79668;SDS011;69136;52.614;6.976;2023-04-10T03:26:15;79.75;;;45.65;;
79668;SDS011;69136;52.614;6.976;2023-04-10T03:28:59;78.65;;;45.47;;
79668;SDS011;69136;52.614;6.976;2023-04-10T03:31:44;79.53;;;43.80;;
79668;SDS011;69136;52.614;6.976;2023-04-10T03:34:31;79.30;;;45.35;;
79668;SDS011;69136;52.614;6.976;2023-04-10T03:37:16;84.05;;;44.35;;
79668;SDS011;69136;52.614;6.976;2023-04-10T03:40:05;82.38;;;45.63;;
79668;SDS011;69136;52.614;6.976;2023-04-10T03:42:50;82.93;;;45.85;;
79668;SDS011;69136;52.614;6.976;2023-04-10T03:45:36;82.90;;;45.15;;
79668;SDS011;69136;52.614;6.976;2023-04-10T03:48:20;78.45;;;44.35;;
79668;SDS011;69136;52.614;6.976;2023-04-10T03:51:05;80.13;;;45.47;;
79668;SDS011;69136;52.614;6.976;2023-04-10T03:53:49;81.10;;;44.50;;
79668;SDS011;69136;52.614;6.976;2023-04-10T03:56:34;83.10;;;43.58;;
79668;SDS011;69136;52.614;6.976;2023-04-10T03:59:19;83.93;;;46.35;;
79668;SDS011;69136;52.614;6.976;2023-04-10T04:02:05;82.18;;;46.72;;
79668;SDS011;69136;52.614;6.976;2023-04-10T04:04:51;89.13;;;45.67;;
79668;SDS011;69136;52.614;6.976;2023-04-10T04:07:58;77.72;;;45.20;;
79668;SDS011;69136;52.614;6.976;2023-04-10T04:11:14;84.32;;;44.60;;
79668;SDS011;69136;52.614;6.976;2023-04-10T04:14:15;85.40;;;44.78;;
79668;SDS011;69136;52.614;6.976;2023-04-10T04:17:06;80.07;;;45.22;;
79668;SDS011;69136;52.614;6.976;2023-04-10T04:20:00;84.40;;;47.45;;
79668;SDS011;69136;52.614;6.976;2023-04-10T04:23:05;90.57;;;47.33;;
79668;SDS011;69136;52.614;6.976;2023-04-10T04:26:05;84.90;;;45.17;;
79668;SDS011;69136;52.614;6.976;2023-04-10T04:29:06;80.47;;;43.88;;
79668;SDS011;69136;52.614;6.976;2023-04-10T04:32:01;87.20;;;44.95;;
79668;SDS011;69136;52.614;6.976;2023-04-10T04:35:04;83.13;;;46.90;;
79668;SDS011;69136;52.614;6.976;2023-04-10T04:38:23;76.65;;;43.38;;
79668;SDS011;69136;52.614;6.976;2023-04-10T04:41:28;84.38;;;45.47;;
79668;SDS011;69136;52.614;6.976;2023-04-10T04:44:17;87.88;;;44.17;;
79668;SDS011;69136;52.614;6.976;2023-04-10T04:47:19;79.68;;;43.25;;
79668;SDS011;69136;52.614;6.976;2023-04-10T04:50:09;79.63;;;43.17;;
79668;SDS011;69136;52.614;6.976;2023-04-10T04:53:12;78.93;;;42.53;;
79668;SDS011;69136;52.614;6.976;2023-04-10T04:56:18;84.43;;;44.67;;
79668;SDS011;69136;52.614;6.976;2023-04-10T04:59:26;80.95;;;41.97;;
79668;SDS011;69136;52.614;6.976;2023-04-10T05:02:15;78.45;;;42.00;;
79668;SDS011;69136;52.614;6.976;2023-04-10T05:04:59;79.20;;;42.25;;
79668;SDS011;69136;52.614;6.976;2023-04-10T05:11:59;81.20;;;40.72;;
79668;SDS011;69136;52.614;6.976;2023-04-10T05:15:15;75.72;;;41.47;;
79668;SDS011;69136;52.614;6.976;2023-04-10T05:18:21;77.97;;;41.92;;
79668;SDS011;69136;52.614;6.976;2023-04-10T05:24:40;71.45;;;39.38;;
79668;SDS011;69136;52.614;6.976;2023-04-10T05:27:40;74.18;;;39.10;;
79668;SDS011;69136;52.614;6.976;2023-04-10T05:30:43;76.63;;;41.67;;
79668;SDS011;69136;52.614;6.976;2023-04-10T05:33:47;75.70;;;40.15;;
79668;SDS011;69136;52.614;6.976;2023-04-10T05:36:42;77.70;;;40.50;;
79668;SDS011;69136;52.614;6.976;2023-04-10T05:39:41;79.40;;;40.83;;
79668;SDS011;69136;52.614;6.976;2023-04-10T05:42:36;75.38;;;40.53;;
79668;SDS011;69136;52.614;6.976;2023-04-10T05:45:42;71.65;;;39.97;;
79668;SDS011;69136;52.614;6.976;2023-04-10T05:48:44;70.93;;;37.42;;
79668;SDS011;69136;52.614;6.976;2023-04-10T05:51:52;66.15;;;36.63;;
79668;SDS011;69136;52.614;6.976;2023-04-10T05:54:49;68.20;;;36.67;;
79668;SDS011;69136;52.614;6.976;2023-04-10T05:57:46;69.65;;;37.80;;
79668;SDS011;69136;52.614;6.976;2023-04-10T06:01:01;71.35;;;37.30;;
79668;SDS011;69136;52.614;6.976;2023-04-10T06:04:01;66.35;;;35.92;;
79668;SDS011;69136;52.614;6.976;2023-04-10T06:06:52;64.55;;;35.30;;
79668;SDS011;69136;52.614;6.976;2023-04-10T06:09:56;68.28;;;35.17;;
79668;SDS011;69136;52.614;6.976;2023-04-10T06:12:49;67.05;;;34.40;;
79668;SDS011;69136;52.614;6.976;2023-04-10T06:15:37;63.08;;;34.65;;
79668;SDS011;69136;52.614;6.976;2023-04-10T06:18:22;63.50;;;33.30;;
79668;SDS011;69136;52.614;6.976;2023-04-10T06:21:15;61.08;;;33.45;;
79668;SDS011;69136;52.614;6.976;2023-04-10T06:24:29;55.05;;;32.17;;
79668;SDS011;69136;52.614;6.976;2023-04-10T06:27:22;57.88;;;31.50;;
79668;SDS011;69136;52.614;6.976;2023-04-10T06:33:54;54.15;;;31.33;;
79668;SDS011;69136;52.614;6.976;2023-04-10T06:36:39;55.47;;;30.08;;
79668;SDS011;69136;52.614;6.976;2023-04-10T06:39:28;53.53;;;30.73;;
79668;SDS011;69136;52.614;6.976;2023-04-10T06:42:13;50.85;;;29.42;;
79668;SDS011;69136;52.614;6.976;2023-04-10T06:45:15;50.40;;;28.88;;
79668;SDS011;69136;52.614;6.976;2023-04-10T06:48:00;45.50;;;28.25;;
79668;SDS011;69136;52.614;6.976;2023-04-10T06:50:48;51.28;;;28.38;;
79668;SDS011;69136;52.614;6.976;2023-04-10T06:53:38;50.03;;;30.65;;
79668;SDS011;69136;52.614;6.976;2023-04-10T06:59:42;51.00;;;27.63;;
79668;SDS011;69136;52.614;6.976;2023-04-10T07:02:29;47.50;;;26.77;;
79668;SDS011;69136;52.614;6.976;2023-04-10T07:05:18;48.45;;;28.10;;
79668;SDS011;69136;52.614;6.976;2023-04-10T07:08:03;48.03;;;26.55;;
79668;SDS011;69136;52.614;6.976;2023-04-10T07:10:47;43.35;;;25.73;;
79668;SDS011;69136;52.614;6.976;2023-04-10T07:13:42;46.53;;;25.65;;
79668;SDS011;69136;52.614;6.976;2023-04-10T07:16:29;44.80;;;24.95;;
79668;SDS011;69136;52.614;6.976;2023-04-10T07:22:10;47.08;;;25.58;;
79668;SDS011;69136;52.614;6.976;2023-04-10T07:30:33;41.90;;;24.45;;
79668;SDS011;69136;52.614;6.976;2023-04-10T07:36:42;40.75;;;23.77;;
79668;SDS011;69136;52.614;6.976;2023-04-10T07:42:22;39.50;;;22.73;;
79668;SDS011;69136;52.614;6.976;2023-04-10T07:48:02;41.00;;;23.33;;
79668;SDS011;69136;52.614;6.976;2023-04-10T07:54:10;37.95;;;22.23;;
79668;SDS011;69136;52.614;6.976;2023-04-10T07:56:58;34.88;;;21.05;;
79668;SDS011;69136;52.614;6.976;2023-04-10T07:59:51;36.72;;;22.08;;
79668;SDS011;69136;52.614;6.976;2023-04-10T08:05:31;39.83;;;21.33;;
79668;SDS011;69136;52.614;6.976;2023-04-10T08:12:21;34.03;;;19.40;;
79668;SDS011;69136;52.614;6.976;2023-04-10T08:24:08;30.75;;;17.35;;
79668;SDS011;69136;52.614;6.976;2023-04-10T08:29:52;31.55;;;18.38;;
79668;SDS011;69136;52.614;6.976;2023-04-10T08:32:40;33.50;;;19.35;;
79668;SDS011;69136;52.614;6.976;2023-04-10T08:35:25;28.08;;;16.48;;
79668;SDS011;69136;52.614;6.976;2023-04-10T08:38:09;26.15;;;15.63;;
79668;SDS011;69136;52.614;6.976;2023-04-10T08:40:55;27.08;;;15.48;;
79668;SDS011;69136;52.614;6.976;2023-04-10T08:43:41;26.08;;;15.77;;
79668;SDS011;69136;52.614;6.976;2023-04-10T08:46:29;26.70;;;15.73;;
79668;SDS011;69136;52.614;6.976;2023-04-10T08:56:14;24.33;;;13.55;;
79668;SDS011;69136;52.614;6.976;2023-04-10T08:59:18;24.48;;;14.82;;
79668;SDS011;69136;52.614;6.976;2023-04-10T09:02:08;24.85;;;13.98;;
79668;SDS011;69136;52.614;6.976;2023-04-10T09:05:31;22.45;;;13.73;;
79668;SDS011;69136;52.614;6.976;2023-04-10T09:11:18;22.65;;;13.18;;
79668;SDS011;69136;52.614;6.976;2023-04-10T09:14:41;18.70;;;10.40;;
79668;SDS011;69136;52.614;6.976;2023-04-10T09:18:02;17.73;;;10.90;;
79668;SDS011;69136;52.614;6.976;2023-04-10T09:20:49;18.65;;;10.40;;
79668;SDS011;69136;52.614;6.976;2023-04-10T09:23:34;16.60;;;9.80;;
79668;SDS011;69136;52.614;6.976;2023-04-10T09:30:04;15.50;;;9.48;;
79668;SDS011;69136;52.614;6.976;2023-04-10T09:32:49;13.55;;;9.00;;
79668;SDS011;69136;52.614;6.976;2023-04-10T09:35:36;14.02;;;7.82;;
79668;SDS011;69136;52.614;6.976;2023-04-10T09:38:21;12.63;;;8.27;;
79668;SDS011;69136;52.614;6.976;2023-04-10T09:41:08;12.07;;;7.10;;
79668;SDS011;69136;52.614;6.976;2023-04-10T09:47:14;12.13;;;7.85;;
79668;SDS011;69136;52.614;6.976;2023-04-10T09:50:04;10.80;;;7.35;;
79668;SDS011;69136;52.614;6.976;2023-04-10T09:52:55;11.93;;;7.47;;
79668;SDS011;69136;52.614;6.976;2023-04-10T09:55:45;10.95;;;6.93;;
79668;SDS011;69136;52.614;6.976;2023-04-10T10:01:58;10.30;;;6.97;;
79668;SDS011;69136;52.614;6.976;2023-04-10T10:11:03;10.88;;;7.38;;
79668;SDS011;69136;52.614;6.976;2023-04-10T10:14:02;10.00;;;6.40;;
79668;SDS011;69136;52.614;6.976;2023-04-10T10:17:04;10.90;;;6.78;;
79668;SDS011;69136;52.614;6.976;2023-04-10T10:23:23;8.38;;;5.95;;
79668;SDS011;69136;52.614;6.976;2023-04-10T10:26:13;8.38;;;5.82;;
79668;SDS011;69136;52.614;6.976;2023-04-10T10:29:02;8.50;;;5.40;;
79668;SDS011;69136;52.614;6.976;2023-04-10T10:31:58;8.52;;;5.78;;
79668;SDS011;69136;52.614;6.976;2023-04-10T10:34:43;7.93;;;5.82;;
79668;SDS011;69136;52.614;6.976;2023-04-10T10:37:29;7.40;;;4.90;;
79668;SDS011;69136;52.614;6.976;2023-04-10T10:43:15;8.13;;;5.57;;
79668;SDS011;69136;52.614;6.976;2023-04-10T10:46:11;8.50;;;5.25;;
79668;SDS011;69136;52.614;6.976;2023-04-10T10:49:00;7.05;;;5.15;;
79668;SDS011;69136;52.614;6.976;2023-04-10T10:51:49;7.45;;;4.95;;
79668;SDS011;69136;52.614;6.976;2023-04-10T10:54:37;6.43;;;4.57;;
79668;SDS011;69136;52.614;6.976;2023-04-10T11:01:06;6.75;;;4.57;;
79668;SDS011;69136;52.614;6.976;2023-04-10T11:06:59;5.40;;;3.65;;
79668;SDS011;69136;52.614;6.976;2023-04-10T11:16:09;7.50;;;3.70;;
79668;SDS011;69136;52.614;6.976;2023-04-10T12:21:17;4.55;;;3.25;;
79668;SDS011;69136;52.614;6.976;2023-04-10T12:35:38;4.85;;;3.53;;
79668;SDS011;69136;52.614;6.976;2023-04-10T12:47:15;4.13;;;2.83;;
79668;SDS011;69136;52.614;6.976;2023-04-10T12:50:48;4.15;;;2.70;;
79668;SDS011;69136;52.614;6.976;2023-04-10T15:42:11;2.80;;;2.10;;
79668;SDS011;69136;52.614;6.976;2023-04-10T15:44:55;2.95;;;2.30;;
79668;SDS011;69136;52.614;6.976;2023-04-10T15:53:24;3.63;;;2.10;;
79668;SDS011;69136;52.614;6.976;2023-04-10T16:05:03;3.58;;;2.65;;
79668;SDS011;69136;52.614;6.976;2023-04-10T16:13:27;2.95;;;2.13;;
79668;SDS011;69136;52.614;6.976;2023-04-10T16:16:14;2.65;;;2.00;;
79668;SDS011;69136;52.614;6.976;2023-04-10T16:27:25;3.13;;;1.92;;
79668;SDS011;69136;52.614;6.976;2023-04-10T16:36:54;2.13;;;1.60;;
79668;SDS011;69136;52.614;6.976;2023-04-10T16:42:48;2.70;;;1.85;;
79668;SDS011;69136;52.614;6.976;2023-04-10T16:45:36;3.25;;;2.38;;
79668;SDS011;69136;52.614;6.976;2023-04-10T16:48:20;3.53;;;2.25;;
79668;SDS011;69136;52.614;6.976;2023-04-10T16:51:23;2.63;;;1.77;;
79668;SDS011;69136;52.614;6.976;2023-04-10T16:54:12;2.75;;;2.45;;
79668;SDS011;69136;52.614;6.976;2023-04-10T16:56:59;3.35;;;2.20;;
79668;SDS011;69136;52.614;6.976;2023-04-10T16:59:44;3.08;;;2.20;;
79668;SDS011;69136;52.614;6.976;2023-04-10T17:02:30;3.22;;;2.47;;
79668;SDS011;69136;52.614;6.976;2023-04-10T17:05:49;5.18;;;2.25;;
79668;SDS011;69136;52.614;6.976;2023-04-10T17:08:42;3.20;;;2.40;;
79668;SDS011;69136;52.614;6.976;2023-04-10T17:11:27;3.33;;;2.33;;
79668;SDS011;69136;52.614;6.976;2023-04-10T17:14:12;4.03;;;2.70;;
79668;SDS011;69136;52.614;6.976;2023-04-10T17:16:57;4.72;;;2.65;;
79668;SDS011;69136;52.614;6.976;2023-04-10T17:19:42;4.50;;;2.90;;
79668;SDS011;69136;52.614;6.976;2023-04-10T17:22:26;4.78;;;3.13;;
79668;SDS011;69136;52.614;6.976;2023-04-10T17:25:10;5.75;;;3.88;;
79668;SDS011;69136;52.614;6.976;2023-04-10T17:27:55;5.53;;;4.65;;
79668;SDS011;69136;52.614;6.976;2023-04-10T17:30:41;4.50;;;3.45;;
79668;SDS011;69136;52.614;6.976;2023-04-10T17:33:27;4.72;;;3.13;;
79668;SDS011;69136;52.614;6.976;2023-04-10T17:36:11;7.05;;;3.92;;
79668;SDS011;69136;52.614;6.976;2023-04-10T17:38:56;5.72;;;4.07;;
79668;SDS011;69136;52.614;6.976;2023-04-10T17:41:40;7.15;;;4.97;;
79668;SDS011;69136;52.614;6.976;2023-04-10T17:44:24;6.78;;;4.60;;
79668;SDS011;69136;52.614;6.976;2023-04-10T17:47:08;7.82;;;4.22;;
79668;SDS011;69136;52.614;6.976;2023-04-10T17:49:53;5.10;;;3.67;;
79668;SDS011;69136;52.614;6.976;2023-04-10T17:52:38;9.23;;;4.30;;
79668;SDS011;69136;52.614;6.976;2023-04-10T17:55:23;5.97;;;4.20;;
79668;SDS011;69136;52.614;6.976;2023-04-10T17:58:07;6.25;;;4.35;;
79668;SDS011;69136;52.614;6.976;2023-04-10T18:00:51;6.65;;;4.38;;
79668;SDS011;69136;52.614;6.976;2023-04-10T18:03:36;6.38;;;4.45;;
79668;SDS011;69136;52.614;6.976;2023-04-10T18:06:20;7.07;;;4.60;;
79668;SDS011;69136;52.614;6.976;2023-04-10T18:09:04;4.97;;;3.72;;
79668;SDS011;69136;52.614;6.976;2023-04-10T18:11:49;6.00;;;3.67;;
79668;SDS011;69136;52.614;6.976;2023-04-10T18:14:33;4.95;;;3.60;;
79668;SDS011;69136;52.614;6.976;2023-04-10T18:17:19;6.65;;;4.32;;
79668;SDS011;69136;52.614;6.976;2023-04-10T18:20:03;6.15;;;3.40;;
79668;SDS011;69136;52.614;6.976;2023-04-10T18:22:48;4.22;;;3.10;;
79668;SDS011;69136;52.614;6.976;2023-04-10T18:25:32;9.10;;;4.53;;
79668;SDS011;69136;52.614;6.976;2023-04-10T18:28:17;29.35;;;22.48;;
79668;SDS011;69136;52.614;6.976;2023-04-10T18:31:01;14.65;;;10.50;;
79668;SDS011;69136;52.614;6.976;2023-04-10T18:33:46;9.75;;;7.00;;
79668;SDS011;69136;52.614;6.976;2023-04-10T18:36:30;8.27;;;7.43;;
79668;SDS011;69136;52.614;6.976;2023-04-10T18:39:15;10.60;;;4.75;;
79668;SDS011;69136;52.614;6.976;2023-04-10T18:42:00;10.30;;;7.07;;
79668;SDS011;69136;52.614;6.976;2023-04-10T18:44:45;10.93;;;6.03;;
79668;SDS011;69136;52.614;6.976;2023-04-10T18:47:29;14.13;;;5.88;;
79668;SDS011;69136;52.614;6.976;2023-04-10T18:50:14;10.40;;;6.65;;
79668;SDS011;69136;52.614;6.976;2023-04-10T18:52:58;10.35;;;6.97;;
79668;SDS011;69136;52.614;6.976;2023-04-10T18:56:03;19.23;;;14.38;;
79668;SDS011;69136;52.614;6.976;2023-04-10T18:58:50;16.05;;;10.52;;
79668;SDS011;69136;52.614;6.976;2023-04-10T19:01:37;8.20;;;5.28;;
79668;SDS011;69136;52.614;6.976;2023-04-10T19:07:19;7.88;;;4.45;;
79668;SDS011;69136;52.614;6.976;2023-04-10T19:10:06;6.15;;;4.97;;
79668;SDS011;69136;52.614;6.976;2023-04-10T19:12:51;11.18;;;4.80;;
79668;SDS011;69136;52.614;6.976;2023-04-10T19:15:46;7.38;;;4.45;;
79668;SDS011;69136;52.614;6.976;2023-04-10T19:18:31;9.98;;;5.35;;
79668;SDS011;69136;52.614;6.976;2023-04-10T19:24:10;8.05;;;6.55;;
79668;SDS011;69136;52.614;6.976;2023-04-10T19:26:55;7.25;;;4.43;;
79668;SDS011;69136;52.614;6.976;2023-04-10T19:29:40;6.75;;;4.90;;
79668;SDS011;69136;52.614;6.976;2023-04-10T19:32:25;9.20;;;4.30;;
79668;SDS011;69136;52.614;6.976;2023-04-10T19:35:10;5.60;;;3.72;;
79668;SDS011;69136;52.614;6.976;2023-04-10T19:37:59;7.10;;;4.32;;
79668;SDS011;69136;52.614;6.976;2023-04-10T19:40:44;5.18;;;3.08;;
79668;SDS011;69136;52.614;6.976;2023-04-10T19:43:30;6.45;;;3.22;;
79668;SDS011;69136;52.614;6.976;2023-04-10T19:46:18;3.92;;;3.17;;
79668;SDS011;69136;52.614;6.976;2023-04-10T19:49:05;4.20;;;2.83;;
79668;SDS011;69136;52.614;6.976;2023-04-10T19:58:02;5.80;;;3.20;;
79668;SDS011;69136;52.614;6.976;2023-04-10T20:03:51;5.90;;;3.20;;
79668;SDS011;69136;52.614;6.976;2023-04-10T20:06:37;3.83;;;2.72;;
79668;SDS011;69136;52.614;6.976;2023-04-10T20:09:42;5.22;;;3.08;;
79668;SDS011;69136;52.614;6.976;2023-04-10T20:12:27;6.88;;;2.75;;
79668;SDS011;69136;52.614;6.976;2023-04-10T20:18:16;4.25;;;2.90;;
79668;SDS011;69136;52.614;6.976;2023-04-10T20:32:44;3.67;;;2.53;;
79668;SDS011;69136;52.614;6.976;2023-04-10T20:35:30;6.10;;;3.10;;
79668;SDS011;69136;52.614;6.976;2023-04-10T20:44:25;4.93;;;2.35;;
79668;SDS011;69136;52.614;6.976;2023-04-10T20:47:36;4.53;;;2.45;;
79668;SDS011;69136;52.614;6.976;2023-04-10T20:50:31;3.65;;;2.22;;
79668;SDS011;69136;52.614;6.976;2023-04-10T20:53:21;4.85;;;2.90;;
79668;SDS011;69136;52.614;6.976;2023-04-10T20:56:11;5.15;;;3.00;;
79668;SDS011;69136;52.614;6.976;2023-04-10T20:58:58;6.22;;;3.35;;
79668;SDS011;69136;52.614;6.976;2023-04-10T21:01:46;4.88;;;2.88;;
79668;SDS011;69136;52.614;6.976;2023-04-10T21:04:58;4.88;;;2.97;;
79668;SDS011;69136;52.614;6.976;2023-04-10T21:11:37;7.78;;;3.45;;
79668;SDS011;69136;52.614;6.976;2023-04-10T21:14:25;5.10;;;3.25;;
79668;SDS011;69136;52.614;6.976;2023-04-10T21:17:10;5.07;;;3.47;;
79668;SDS011;69136;52.614;6.976;2023-04-10T21:19:56;6.25;;;3.60;;
79668;SDS011;69136;52.614;6.976;2023-04-10T21:22:41;5.13;;;3.03;;
79668;SDS011;69136;52.614;6.976;2023-04-10T21:25:29;4.43;;;3.00;;
79668;SDS011;69136;52.614;6.976;2023-04-10T21:28:14;5.07;;;3.63;;
79668;SDS011;69136;52.614;6.976;2023-04-10T21:30:59;6.68;;;3.33;;
79668;SDS011;69136;52.614;6.976;2023-04-10T21:33:44;7.78;;;4.40;;
79668;SDS011;69136;52.614;6.976;2023-04-10T21:36:29;6.45;;;4.00;;
79668;SDS011;69136;52.614;6.976;2023-04-10T21:39:15;5.35;;;3.75;;
79668;SDS011;69136;52.614;6.976;2023-04-10T21:42:06;6.35;;;4.13;;
79668;SDS011;69136;52.614;6.976;2023-04-10T21:44:53;8.85;;;3.70;;
79668;SDS011;69136;52.614;6.976;2023-04-10T21:47:49;5.93;;;3.88;;
79668;SDS011;69136;52.614;6.976;2023-04-10T21:50:39;7.13;;;3.90;;
79668;SDS011;69136;52.614;6.976;2023-04-10T21:53:50;5.10;;;2.67;;
79668;SDS011;69136;52.614;6.976;2023-04-10T21:56:35;6.90;;;3.08;;
79668;SDS011;69136;52.614;6.976;2023-04-10T21:59:26;6.55;;;3.47;;
79668;SDS011;69136;52.614;6.976;2023-04-10T22:14:00;6.60;;;3.67;;
79668;SDS011;69136;52.614;6.976;2023-04-10T22:16:48;5.93;;;3.33;;
79668;SDS011;69136;52.614;6.976;2023-04-10T22:19:34;5.15;;;3.30;;
79668;SDS011;69136;52.614;6.976;2023-04-10T22:22:22;7.32;;;3.35;;
79668;SDS011;69136;52.614;6.976;2023-04-10T22:25:30;5.00;;;3.10;;
79668;SDS011;69136;52.614;6.976;2023-04-10T22:28:23;6.75;;;3.58;;
79668;SDS011;69136;52.614;6.976;2023-04-10T22:31:16;5.68;;;3.25;;
79668;SDS011;69136;52.614;6.976;2023-04-10T22:34:01;5.55;;;3.65;;
79668;SDS011;69136;52.614;6.976;2023-04-10T22:36:46;5.53;;;2.95;;
79668;SDS011;69136;52.614;6.976;2023-04-10T22:42:30;6.05;;;2.85;;
79668;SDS011;69136;52.614;6.976;2023-04-10T22:46:54;7.07;;;3.22;;
79668;SDS011;69136;52.614;6.976;2023-04-10T22:49:42;8.93;;;3.85;;
79668;SDS011;69136;52.614;6.976;2023-04-10T22:52:27;8.13;;;3.45;;
79668;SDS011;69136;52.614;6.976;2023-04-10T22:55:11;7.03;;;3.38;;
79668;SDS011;69136;52.614;6.976;2023-04-10T22:58:01;7.80;;;3.20;;
79668;SDS011;69136;52.614;6.976;2023-04-10T23:00:46;8.15;;;3.53;;
79668;SDS011;69136;52.614;6.976;2023-04-10T23:03:31;4.22;;;2.80;;
79668;SDS011;69136;52.614;6.976;2023-04-10T23:06:19;5.22;;;3.28;;
79668;SDS011;69136;52.614;6.976;2023-04-10T23:09:04;7.75;;;3.30;;
79668;SDS011;69136;52.614;6.976;2023-04-10T23:11:49;8.52;;;3.63;;
79668;SDS011;69136;52.614;6.976;2023-04-10T23:14:36;7.65;;;3.75;;
79668;SDS011;69136;52.614;6.976;2023-04-10T23:17:22;6.55;;;3.28;;
79668;SDS011;69136;52.614;6.976;2023-04-10T23:20:09;8.05;;;4.28;;
79668;SDS011;69136;52.614;6.976;2023-04-10T23:22:54;10.07;;;3.33;;
79668;SDS011;69136;52.614;6.976;2023-04-10T23:25:39;6.38;;;3.65;;
79668;SDS011;69136;52.614;6.976;2023-04-10T23:28:26;7.45;;;3.00;;
79668;SDS011;69136;52.614;6.976;2023-04-10T23:36:57;8.38;;;3.40;;
